sensor_id;sensor_type;location;lat;lon;timestamp;P1;durP1;ratioP1;P2;durP2;ratioP2
47545;SDS011;50104;52.002;4.688;2023-12-22T00:04:34;11.90;;;2.40;;
47545;SDS011;50104;52.002;4.688;2023-12-22T00:09:35;21.75;;;3.53;;
47545;SDS011;50104;52.002;4.688;2023-12-22T00:14:35;15.52;;;2.85;;
47545;SDS011;50104;52.002;4.688;2023-12-22T00:19:37;17.67;;;3.60;;
47545;SDS011;50104;52.002;4.688;2023-12-22T00:24:38;18.25;;;3.92;;
47545;SDS011;50104;52.002;4.688;2023-12-22T00:29:40;16.38;;;2.78;;
47545;SDS011;50104;52.002;4.688;2023-12-22T00:34:41;20.23;;;3.75;;
47545;SDS011;50104;52.002;4.688;2023-12-22T00:39:42;11.02;;;1.98;;
47545;SDS011;50104;52.002;4.688;2023-12-22T00:44:42;12.95;;;3.00;;
47545;SDS011;50104;52.002;4.688;2023-12-22T00:49:43;11.43;;;2.47;;
47545;SDS011;50104;52.002;4.688;2023-12-22T00:54:44;15.13;;;2.70;;
47545;SDS011;50104;52.002;4.688;2023-12-22T00:59:45;14.95;;;2.80;;
47545;SDS011;50104;52.002;4.688;2023-12-22T01:04:47;20.50;;;2.95;;
47545;SDS011;50104;52.002;4.688;2023-12-22T01:09:48;12.20;;;2.38;;
47545;SDS011;50104;52.002;4.688;2023-12-22T01:14:49;9.45;;;2.78;;
47545;SDS011;50104;52.002;4.688;2023-12-22T01:19:51;11.13;;;2.83;;
47545;SDS011;50104;52.002;4.688;2023-12-22T01:24:52;15.25;;;2.92;;
47545;SDS011;50104;52.002;4.688;2023-12-22T01:29:53;16.27;;;4.43;;
47545;SDS011;50104;52.002;4.688;2023-12-22T01:34:54;13.95;;;2.85;;
47545;SDS011;50104;52.002;4.688;2023-12-22T01:39:55;13.57;;;2.60;;
47545;SDS011;50104;52.002;4.688;2023-12-22T01:44:56;17.08;;;2.55;;
47545;SDS011;50104;52.002;4.688;2023-12-22T01:49:56;10.93;;;2.47;;
47545;SDS011;50104;52.002;4.688;2023-12-22T01:54:57;18.90;;;2.60;;
47545;SDS011;50104;52.002;4.688;2023-12-22T01:59:58;13.65;;;2.05;;
47545;SDS011;50104;52.002;4.688;2023-12-22T02:04:59;8.48;;;2.03;;
47545;SDS011;50104;52.002;4.688;2023-12-22T02:10:00;8.85;;;1.90;;
47545;SDS011;50104;52.002;4.688;2023-12-22T02:15:01;14.07;;;3.63;;
47545;SDS011;50104;52.002;4.688;2023-12-22T02:20:03;9.00;;;1.98;;
47545;SDS011;50104;52.002;4.688;2023-12-22T02:25:07;18.60;;;2.67;;
47545;SDS011;50104;52.002;4.688;2023-12-22T02:30:09;16.10;;;2.78;;
47545;SDS011;50104;52.002;4.688;2023-12-22T02:40:21;10.63;;;2.17;;
47545;SDS011;50104;52.002;4.688;2023-12-22T02:45:23;8.05;;;1.95;;
47545;SDS011;50104;52.002;4.688;2023-12-22T02:50:24;6.50;;;1.98;;
47545;SDS011;50104;52.002;4.688;2023-12-22T02:55:25;13.27;;;2.72;;
47545;SDS011;50104;52.002;4.688;2023-12-22T03:00:26;11.60;;;3.50;;
47545;SDS011;50104;52.002;4.688;2023-12-22T03:05:27;14.98;;;2.40;;
47545;SDS011;50104;52.002;4.688;2023-12-22T03:10:28;12.68;;;2.72;;
47545;SDS011;50104;52.002;4.688;2023-12-22T03:15:30;15.00;;;3.20;;
47545;SDS011;50104;52.002;4.688;2023-12-22T03:20:31;9.98;;;2.00;;
47545;SDS011;50104;52.002;4.688;2023-12-22T03:25:32;14.13;;;1.90;;
47545;SDS011;50104;52.002;4.688;2023-12-22T03:30:33;17.17;;;2.50;;
47545;SDS011;50104;52.002;4.688;2023-12-22T03:35:35;12.40;;;2.85;;
47545;SDS011;50104;52.002;4.688;2023-12-22T03:40:36;13.35;;;2.65;;
47545;SDS011;50104;52.002;4.688;2023-12-22T03:45:38;13.50;;;3.45;;
47545;SDS011;50104;52.002;4.688;2023-12-22T03:50:39;14.88;;;1.80;;
47545;SDS011;50104;52.002;4.688;2023-12-22T03:55:39;17.27;;;3.17;;
47545;SDS011;50104;52.002;4.688;2023-12-22T04:00:40;8.77;;;2.10;;
47545;SDS011;50104;52.002;4.688;2023-12-22T04:05:41;9.20;;;2.25;;
47545;SDS011;50104;52.002;4.688;2023-12-22T04:10:42;11.48;;;2.90;;
47545;SDS011;50104;52.002;4.688;2023-12-22T04:15:44;9.35;;;2.20;;
47545;SDS011;50104;52.002;4.688;2023-12-22T04:20:45;16.40;;;3.10;;
47545;SDS011;50104;52.002;4.688;2023-12-22T04:25:46;13.38;;;2.05;;
47545;SDS011;50104;52.002;4.688;2023-12-22T04:30:47;6.05;;;2.10;;
47545;SDS011;50104;52.002;4.688;2023-12-22T04:35:48;7.38;;;1.98;;
47545;SDS011;50104;52.002;4.688;2023-12-22T04:40:49;6.78;;;2.08;;
47545;SDS011;50104;52.002;4.688;2023-12-22T04:45:49;13.32;;;2.60;;
47545;SDS011;50104;52.002;4.688;2023-12-22T04:50:50;8.35;;;2.13;;
47545;SDS011;50104;52.002;4.688;2023-12-22T04:55:51;14.70;;;2.85;;
47545;SDS011;50104;52.002;4.688;2023-12-22T05:00:52;13.18;;;2.70;;
47545;SDS011;50104;52.002;4.688;2023-12-22T05:05:52;11.20;;;2.53;;
47545;SDS011;50104;52.002;4.688;2023-12-22T05:10:53;17.60;;;2.38;;
47545;SDS011;50104;52.002;4.688;2023-12-22T05:15:54;10.02;;;2.05;;
47545;SDS011;50104;52.002;4.688;2023-12-22T05:20:55;23.08;;;2.88;;
47545;SDS011;50104;52.002;4.688;2023-12-22T05:25:56;8.20;;;2.20;;
47545;SDS011;50104;52.002;4.688;2023-12-22T05:30:56;15.02;;;2.78;;
47545;SDS011;50104;52.002;4.688;2023-12-22T05:35:57;13.60;;;2.97;;
47545;SDS011;50104;52.002;4.688;2023-12-22T05:40:58;14.63;;;2.50;;
47545;SDS011;50104;52.002;4.688;2023-12-22T05:45:59;12.80;;;2.13;;
47545;SDS011;50104;52.002;4.688;2023-12-22T05:51:00;19.02;;;3.47;;
47545;SDS011;50104;52.002;4.688;2023-12-22T05:56:03;18.02;;;3.45;;
47545;SDS011;50104;52.002;4.688;2023-12-22T06:01:04;20.02;;;3.92;;
47545;SDS011;50104;52.002;4.688;2023-12-22T06:06:05;25.02;;;3.80;;
47545;SDS011;50104;52.002;4.688;2023-12-22T06:11:06;23.95;;;4.18;;
47545;SDS011;50104;52.002;4.688;2023-12-22T06:16:10;21.23;;;4.60;;
47545;SDS011;50104;52.002;4.688;2023-12-22T06:21:14;30.98;;;4.00;;
47545;SDS011;50104;52.002;4.688;2023-12-22T06:26:15;20.50;;;4.40;;
47545;SDS011;50104;52.002;4.688;2023-12-22T06:31:17;34.85;;;5.95;;
47545;SDS011;50104;52.002;4.688;2023-12-22T06:36:24;33.58;;;5.45;;
47545;SDS011;50104;52.002;4.688;2023-12-22T06:41:26;23.80;;;4.47;;
47545;SDS011;50104;52.002;4.688;2023-12-22T06:46:29;25.85;;;5.10;;
47545;SDS011;50104;52.002;4.688;2023-12-22T06:51:30;25.20;;;4.32;;
47545;SDS011;50104;52.002;4.688;2023-12-22T06:56:34;23.63;;;5.55;;
47545;SDS011;50104;52.002;4.688;2023-12-22T07:01:35;24.23;;;4.50;;
47545;SDS011;50104;52.002;4.688;2023-12-22T07:06:36;31.25;;;5.25;;
47545;SDS011;50104;52.002;4.688;2023-12-22T07:11:37;20.00;;;4.80;;
47545;SDS011;50104;52.002;4.688;2023-12-22T07:16:39;29.40;;;4.60;;
47545;SDS011;50104;52.002;4.688;2023-12-22T07:21:42;17.42;;;3.90;;
47545;SDS011;50104;52.002;4.688;2023-12-22T07:26:43;17.13;;;3.53;;
47545;SDS011;50104;52.002;4.688;2023-12-22T07:31:44;15.52;;;4.50;;
47545;SDS011;50104;52.002;4.688;2023-12-22T07:36:45;16.40;;;3.85;;
47545;SDS011;50104;52.002;4.688;2023-12-22T07:41:46;12.93;;;2.38;;
47545;SDS011;50104;52.002;4.688;2023-12-22T07:46:57;22.95;;;4.93;;
47545;SDS011;50104;52.002;4.688;2023-12-22T07:51:59;16.77;;;3.20;;
47545;SDS011;50104;52.002;4.688;2023-12-22T07:57:00;19.00;;;3.90;;
47545;SDS011;50104;52.002;4.688;2023-12-22T08:02:01;19.30;;;3.15;;
47545;SDS011;50104;52.002;4.688;2023-12-22T08:07:01;16.98;;;3.67;;
47545;SDS011;50104;52.002;4.688;2023-12-22T08:12:02;15.80;;;3.10;;
47545;SDS011;50104;52.002;4.688;2023-12-22T08:17:04;11.93;;;2.78;;
47545;SDS011;50104;52.002;4.688;2023-12-22T08:22:04;15.48;;;3.88;;
47545;SDS011;50104;52.002;4.688;2023-12-22T08:27:05;9.50;;;2.33;;
47545;SDS011;50104;52.002;4.688;2023-12-22T08:32:06;10.32;;;2.05;;
47545;SDS011;50104;52.002;4.688;2023-12-22T08:37:07;13.10;;;2.95;;
47545;SDS011;50104;52.002;4.688;2023-12-22T08:42:08;10.45;;;2.20;;
47545;SDS011;50104;52.002;4.688;2023-12-22T08:47:09;13.70;;;1.88;;
47545;SDS011;50104;52.002;4.688;2023-12-22T08:52:10;6.10;;;1.15;;
47545;SDS011;50104;52.002;4.688;2023-12-22T08:57:11;8.35;;;1.75;;
47545;SDS011;50104;52.002;4.688;2023-12-22T09:02:12;11.30;;;1.90;;
47545;SDS011;50104;52.002;4.688;2023-12-22T09:07:13;10.80;;;1.52;;
47545;SDS011;50104;52.002;4.688;2023-12-22T09:12:14;6.45;;;1.33;;
47545;SDS011;50104;52.002;4.688;2023-12-22T09:17:16;10.68;;;2.65;;
47545;SDS011;50104;52.002;4.688;2023-12-22T09:22:17;9.25;;;2.03;;
47545;SDS011;50104;52.002;4.688;2023-12-22T09:27:18;5.93;;;1.40;;
47545;SDS011;50104;52.002;4.688;2023-12-22T09:32:19;5.28;;;1.73;;
47545;SDS011;50104;52.002;4.688;2023-12-22T09:37:20;9.43;;;2.35;;
47545;SDS011;50104;52.002;4.688;2023-12-22T09:42:21;11.30;;;1.92;;
47545;SDS011;50104;52.002;4.688;2023-12-22T09:47:24;6.82;;;1.45;;
47545;SDS011;50104;52.002;4.688;2023-12-22T09:52:29;6.18;;;1.10;;
47545;SDS011;50104;52.002;4.688;2023-12-22T09:57:31;4.78;;;1.67;;
47545;SDS011;50104;52.002;4.688;2023-12-22T10:02:34;2.10;;;1.55;;
47545;SDS011;50104;52.002;4.688;2023-12-22T10:07:37;4.18;;;1.42;;
47545;SDS011;50104;52.002;4.688;2023-12-22T10:12:39;6.55;;;2.50;;
47545;SDS011;50104;52.002;4.688;2023-12-22T10:17:41;4.18;;;1.27;;
47545;SDS011;50104;52.002;4.688;2023-12-22T10:22:42;8.73;;;1.88;;
47545;SDS011;50104;52.002;4.688;2023-12-22T10:27:43;8.35;;;1.55;;
47545;SDS011;50104;52.002;4.688;2023-12-22T10:32:44;4.95;;;2.35;;
47545;SDS011;50104;52.002;4.688;2023-12-22T10:37:48;6.85;;;1.27;;
47545;SDS011;50104;52.002;4.688;2023-12-22T10:42:53;7.90;;;2.42;;
47545;SDS011;50104;52.002;4.688;2023-12-22T10:47:54;7.97;;;2.58;;
47545;SDS011;50104;52.002;4.688;2023-12-22T10:52:55;10.05;;;2.28;;
47545;SDS011;50104;52.002;4.688;2023-12-22T10:57:56;7.85;;;1.63;;
47545;SDS011;50104;52.002;4.688;2023-12-22T11:02:58;2.85;;;1.20;;
47545;SDS011;50104;52.002;4.688;2023-12-22T11:08:03;3.58;;;1.35;;
47545;SDS011;50104;52.002;4.688;2023-12-22T11:13:09;2.55;;;1.23;;
47545;SDS011;50104;52.002;4.688;2023-12-22T11:18:12;8.88;;;1.80;;
47545;SDS011;50104;52.002;4.688;2023-12-22T11:23:14;5.22;;;1.70;;
47545;SDS011;50104;52.002;4.688;2023-12-22T11:28:18;8.65;;;1.58;;
47545;SDS011;50104;52.002;4.688;2023-12-22T11:33:21;9.45;;;1.92;;
47545;SDS011;50104;52.002;4.688;2023-12-22T11:38:27;11.27;;;1.60;;
47545;SDS011;50104;52.002;4.688;2023-12-22T11:43:28;5.20;;;1.70;;
47545;SDS011;50104;52.002;4.688;2023-12-22T11:48:30;5.75;;;1.58;;
47545;SDS011;50104;52.002;4.688;2023-12-22T11:53:31;10.80;;;2.22;;
47545;SDS011;50104;52.002;4.688;2023-12-22T11:58:43;6.10;;;1.63;;
47545;SDS011;50104;52.002;4.688;2023-12-22T12:03:51;6.47;;;1.90;;
47545;SDS011;50104;52.002;4.688;2023-12-22T12:09:06;3.30;;;1.50;;
47545;SDS011;50104;52.002;4.688;2023-12-22T12:14:10;8.93;;;2.17;;
47545;SDS011;50104;52.002;4.688;2023-12-22T12:19:14;7.78;;;1.08;;
47545;SDS011;50104;52.002;4.688;2023-12-22T12:24:15;6.70;;;1.60;;
47545;SDS011;50104;52.002;4.688;2023-12-22T12:29:17;9.52;;;1.92;;
47545;SDS011;50104;52.002;4.688;2023-12-22T12:34:20;5.60;;;1.35;;
47545;SDS011;50104;52.002;4.688;2023-12-22T12:39:23;10.13;;;1.70;;
47545;SDS011;50104;52.002;4.688;2023-12-22T12:44:31;10.43;;;2.50;;
47545;SDS011;50104;52.002;4.688;2023-12-22T12:49:33;10.63;;;1.58;;
47545;SDS011;50104;52.002;4.688;2023-12-22T12:54:34;8.95;;;1.50;;
47545;SDS011;50104;52.002;4.688;2023-12-22T12:59:35;8.35;;;1.48;;
47545;SDS011;50104;52.002;4.688;2023-12-22T13:04:36;5.90;;;2.17;;
47545;SDS011;50104;52.002;4.688;2023-12-22T13:09:40;11.45;;;2.22;;
47545;SDS011;50104;52.002;4.688;2023-12-22T13:14:44;8.07;;;1.85;;
47545;SDS011;50104;52.002;4.688;2023-12-22T13:19:45;12.80;;;2.00;;
47545;SDS011;50104;52.002;4.688;2023-12-22T13:24:55;9.05;;;1.63;;
47545;SDS011;50104;52.002;4.688;2023-12-22T13:29:57;8.32;;;1.70;;
47545;SDS011;50104;52.002;4.688;2023-12-22T13:34:58;11.68;;;2.33;;
47545;SDS011;50104;52.002;4.688;2023-12-22T13:39:59;5.60;;;1.67;;
47545;SDS011;50104;52.002;4.688;2023-12-22T13:45:01;11.15;;;2.05;;
47545;SDS011;50104;52.002;4.688;2023-12-22T13:50:02;7.43;;;2.08;;
47545;SDS011;50104;52.002;4.688;2023-12-22T13:55:12;8.27;;;1.33;;
47545;SDS011;50104;52.002;4.688;2023-12-22T14:05:24;16.48;;;2.42;;
47545;SDS011;50104;52.002;4.688;2023-12-22T14:10:25;13.88;;;2.25;;
47545;SDS011;50104;52.002;4.688;2023-12-22T14:15:26;11.52;;;2.15;;
47545;SDS011;50104;52.002;4.688;2023-12-22T14:20:29;12.35;;;2.45;;
47545;SDS011;50104;52.002;4.688;2023-12-22T14:25:30;8.70;;;2.15;;
47545;SDS011;50104;52.002;4.688;2023-12-22T14:30:32;9.70;;;2.28;;
47545;SDS011;50104;52.002;4.688;2023-12-22T14:35:35;12.52;;;2.60;;
47545;SDS011;50104;52.002;4.688;2023-12-22T14:40:36;9.82;;;2.25;;
47545;SDS011;50104;52.002;4.688;2023-12-22T14:45:37;7.38;;;1.60;;
47545;SDS011;50104;52.002;4.688;2023-12-22T14:50:39;15.93;;;2.72;;
47545;SDS011;50104;52.002;4.688;2023-12-22T14:55:40;9.77;;;2.70;;
47545;SDS011;50104;52.002;4.688;2023-12-22T15:00:41;10.32;;;2.45;;
47545;SDS011;50104;52.002;4.688;2023-12-22T15:05:42;15.50;;;3.10;;
47545;SDS011;50104;52.002;4.688;2023-12-22T15:10:43;6.28;;;1.80;;
47545;SDS011;50104;52.002;4.688;2023-12-22T15:15:44;10.10;;;2.38;;
47545;SDS011;50104;52.002;4.688;2023-12-22T15:20:45;10.07;;;1.77;;
47545;SDS011;50104;52.002;4.688;2023-12-22T15:25:48;10.20;;;2.45;;
47545;SDS011;50104;52.002;4.688;2023-12-22T15:30:49;24.33;;;5.18;;
47545;SDS011;50104;52.002;4.688;2023-12-22T15:35:53;9.80;;;2.72;;
47545;SDS011;50104;52.002;4.688;2023-12-22T15:40:55;11.15;;;2.97;;
47545;SDS011;50104;52.002;4.688;2023-12-22T15:46:04;13.80;;;3.45;;
47545;SDS011;50104;52.002;4.688;2023-12-22T15:51:11;7.25;;;1.90;;
47545;SDS011;50104;52.002;4.688;2023-12-22T15:56:13;11.27;;;1.80;;
47545;SDS011;50104;52.002;4.688;2023-12-22T16:01:15;11.20;;;2.25;;
47545;SDS011;50104;52.002;4.688;2023-12-22T16:06:17;8.15;;;2.05;;
47545;SDS011;50104;52.002;4.688;2023-12-22T16:11:18;4.80;;;1.80;;
47545;SDS011;50104;52.002;4.688;2023-12-22T16:16:20;9.05;;;2.60;;
47545;SDS011;50104;52.002;4.688;2023-12-22T16:21:21;9.38;;;1.73;;
47545;SDS011;50104;52.002;4.688;2023-12-22T16:26:23;7.60;;;2.13;;
47545;SDS011;50104;52.002;4.688;2023-12-22T16:31:23;13.68;;;2.10;;
47545;SDS011;50104;52.002;4.688;2023-12-22T16:36:24;11.30;;;2.63;;
47545;SDS011;50104;52.002;4.688;2023-12-22T16:41:26;11.90;;;2.10;;
47545;SDS011;50104;52.002;4.688;2023-12-22T16:46:26;14.35;;;3.10;;
47545;SDS011;50104;52.002;4.688;2023-12-22T16:51:27;12.98;;;2.55;;
47545;SDS011;50104;52.002;4.688;2023-12-22T16:56:28;10.50;;;1.75;;
47545;SDS011;50104;52.002;4.688;2023-12-22T17:01:29;9.85;;;2.35;;
47545;SDS011;50104;52.002;4.688;2023-12-22T17:06:30;15.40;;;3.38;;
47545;SDS011;50104;52.002;4.688;2023-12-22T17:11:31;4.68;;;1.30;;
47545;SDS011;50104;52.002;4.688;2023-12-22T17:16:32;9.50;;;1.88;;
47545;SDS011;50104;52.002;4.688;2023-12-22T17:21:33;9.80;;;2.95;;
47545;SDS011;50104;52.002;4.688;2023-12-22T17:26:35;10.25;;;2.03;;
47545;SDS011;50104;52.002;4.688;2023-12-22T17:31:39;10.85;;;2.28;;
47545;SDS011;50104;52.002;4.688;2023-12-22T17:36:40;13.70;;;2.03;;
47545;SDS011;50104;52.002;4.688;2023-12-22T17:41:41;8.48;;;1.58;;
47545;SDS011;50104;52.002;4.688;2023-12-22T17:46:43;8.63;;;2.08;;
47545;SDS011;50104;52.002;4.688;2023-12-22T17:51:46;9.93;;;2.28;;
47545;SDS011;50104;52.002;4.688;2023-12-22T17:56:47;12.10;;;2.45;;
47545;SDS011;50104;52.002;4.688;2023-12-22T18:01:48;11.07;;;1.48;;
47545;SDS011;50104;52.002;4.688;2023-12-22T18:06:49;9.90;;;2.63;;
47545;SDS011;50104;52.002;4.688;2023-12-22T18:11:51;11.18;;;2.50;;
47545;SDS011;50104;52.002;4.688;2023-12-22T18:16:52;9.10;;;2.22;;
47545;SDS011;50104;52.002;4.688;2023-12-22T18:21:53;8.35;;;2.63;;
47545;SDS011;50104;52.002;4.688;2023-12-22T18:26:53;11.73;;;2.17;;
47545;SDS011;50104;52.002;4.688;2023-12-22T18:31:54;17.63;;;3.30;;
47545;SDS011;50104;52.002;4.688;2023-12-22T18:36:57;11.75;;;2.03;;
47545;SDS011;50104;52.002;4.688;2023-12-22T18:41:58;7.20;;;1.50;;
47545;SDS011;50104;52.002;4.688;2023-12-22T18:47:02;8.20;;;2.05;;
47545;SDS011;50104;52.002;4.688;2023-12-22T18:52:03;7.30;;;2.10;;
47545;SDS011;50104;52.002;4.688;2023-12-22T18:57:05;14.93;;;2.25;;
47545;SDS011;50104;52.002;4.688;2023-12-22T19:02:06;14.68;;;2.38;;
47545;SDS011;50104;52.002;4.688;2023-12-22T19:07:07;11.88;;;2.38;;
47545;SDS011;50104;52.002;4.688;2023-12-22T19:12:09;25.33;;;3.35;;
47545;SDS011;50104;52.002;4.688;2023-12-22T19:17:10;8.48;;;1.55;;
47545;SDS011;50104;52.002;4.688;2023-12-22T19:22:12;16.10;;;2.42;;
47545;SDS011;50104;52.002;4.688;2023-12-22T19:27:13;14.35;;;2.92;;
47545;SDS011;50104;52.002;4.688;2023-12-22T19:32:15;14.30;;;2.92;;
47545;SDS011;50104;52.002;4.688;2023-12-22T19:37:16;11.90;;;2.83;;
47545;SDS011;50104;52.002;4.688;2023-12-22T19:42:19;15.25;;;3.05;;
47545;SDS011;50104;52.002;4.688;2023-12-22T19:47:19;11.05;;;2.80;;
47545;SDS011;50104;52.002;4.688;2023-12-22T19:52:20;12.30;;;2.03;;
47545;SDS011;50104;52.002;4.688;2023-12-22T19:57:21;13.35;;;1.70;;
47545;SDS011;50104;52.002;4.688;2023-12-22T20:02:22;15.40;;;2.63;;
47545;SDS011;50104;52.002;4.688;2023-12-22T20:07:23;11.45;;;2.05;;
47545;SDS011;50104;52.002;4.688;2023-12-22T20:12:25;7.72;;;1.65;;
47545;SDS011;50104;52.002;4.688;2023-12-22T20:17:26;3.83;;;1.05;;
47545;SDS011;50104;52.002;4.688;2023-12-22T20:22:28;8.75;;;1.70;;
47545;SDS011;50104;52.002;4.688;2023-12-22T20:27:29;5.97;;;0.95;;
47545;SDS011;50104;52.002;4.688;2023-12-22T20:32:30;6.93;;;1.13;;
47545;SDS011;50104;52.002;4.688;2023-12-22T20:37:31;5.35;;;1.10;;
47545;SDS011;50104;52.002;4.688;2023-12-22T20:42:33;5.00;;;1.05;;
47545;SDS011;50104;52.002;4.688;2023-12-22T20:47:34;9.38;;;1.58;;
47545;SDS011;50104;52.002;4.688;2023-12-22T20:52:36;7.50;;;1.40;;
47545;SDS011;50104;52.002;4.688;2023-12-22T20:57:37;4.72;;;0.95;;
47545;SDS011;50104;52.002;4.688;2023-12-22T21:02:37;9.93;;;1.23;;
47545;SDS011;50104;52.002;4.688;2023-12-22T21:07:39;3.10;;;0.60;;
47545;SDS011;50104;52.002;4.688;2023-12-22T21:12:40;3.10;;;0.75;;
47545;SDS011;50104;52.002;4.688;2023-12-22T21:17:41;5.97;;;1.35;;
47545;SDS011;50104;52.002;4.688;2023-12-22T21:22:46;7.05;;;1.10;;
47545;SDS011;50104;52.002;4.688;2023-12-22T21:27:47;10.20;;;2.97;;
47545;SDS011;50104;52.002;4.688;2023-12-22T21:32:47;6.95;;;1.00;;
47545;SDS011;50104;52.002;4.688;2023-12-22T21:37:49;9.40;;;2.13;;
47545;SDS011;50104;52.002;4.688;2023-12-22T21:42:52;4.80;;;1.10;;
47545;SDS011;50104;52.002;4.688;2023-12-22T21:47:54;6.95;;;1.38;;
47545;SDS011;50104;52.002;4.688;2023-12-22T21:52:56;6.05;;;1.05;;
47545;SDS011;50104;52.002;4.688;2023-12-22T21:57:58;8.10;;;1.38;;
47545;SDS011;50104;52.002;4.688;2023-12-22T22:02:59;3.33;;;1.10;;
47545;SDS011;50104;52.002;4.688;2023-12-22T22:07:59;3.55;;;0.85;;
47545;SDS011;50104;52.002;4.688;2023-12-22T22:13:00;2.75;;;0.98;;
47545;SDS011;50104;52.002;4.688;2023-12-22T22:18:01;6.57;;;1.27;;
47545;SDS011;50104;52.002;4.688;2023-12-22T22:23:03;4.47;;;0.85;;
47545;SDS011;50104;52.002;4.688;2023-12-22T22:28:03;3.25;;;0.63;;
47545;SDS011;50104;52.002;4.688;2023-12-22T22:33:04;4.70;;;1.02;;
47545;SDS011;50104;52.002;4.688;2023-12-22T22:38:05;8.90;;;1.00;;
47545;SDS011;50104;52.002;4.688;2023-12-22T22:43:06;4.35;;;0.98;;
47545;SDS011;50104;52.002;4.688;2023-12-22T22:48:08;4.07;;;1.48;;
47545;SDS011;50104;52.002;4.688;2023-12-22T22:53:09;7.88;;;1.38;;
47545;SDS011;50104;52.002;4.688;2023-12-22T22:58:10;7.82;;;1.20;;
47545;SDS011;50104;52.002;4.688;2023-12-22T23:03:11;7.63;;;1.30;;
47545;SDS011;50104;52.002;4.688;2023-12-22T23:08:21;11.55;;;1.50;;
47545;SDS011;50104;52.002;4.688;2023-12-22T23:13:22;6.80;;;1.60;;
47545;SDS011;50104;52.002;4.688;2023-12-22T23:18:33;4.13;;;1.20;;
47545;SDS011;50104;52.002;4.688;2023-12-22T23:23:45;6.38;;;1.20;;
47545;SDS011;50104;52.002;4.688;2023-12-22T23:28:50;4.93;;;1.13;;
47545;SDS011;50104;52.002;4.688;2023-12-22T23:33:50;8.95;;;1.60;;
47545;SDS011;50104;52.002;4.688;2023-12-22T23:39:01;8.43;;;1.30;;
47545;SDS011;50104;52.002;4.688;2023-12-22T23:44:09;8.45;;;1.40;;
47545;SDS011;50104;52.002;4.688;2023-12-22T23:49:15;6.95;;;1.55;;
47545;SDS011;50104;52.002;4.688;2023-12-22T23:54:16;7.78;;;1.63;;
47545;SDS011;50104;52.002;4.688;2023-12-22T23:59:17;8.07;;;1.52;;
